Wallace, Idaho
Current Conditions -  °F | °C
As of 6:10 PM on Tuesday 21 Oct 2014 (Local Time) from KMLP Reporting Station
Overcast Overcast  
Wind Chill: 31°   Ceiling: 500
Heat Index: 35°   Visibility: 10mi
Dew Point: 34°   Wind: 5mph
Humidity: 96%   Direction: NA
Pressure: 29.99"   Gusts: NA
Location:  47.47°N, 115.93°W
Report Text: KMLP 220110Z AUTO VRB04KT 10SM BKN005 OVC009 02/01 A2999 RMK AO2 T00170011
Loading
Personal Weather Stations






























Interactive Weather Map
Tropical Storm Tracking
New forecast layout! Learn more

10-Day Weather Forecast

Advertisements
Track Severe Weather on mobile